Česky Dansk Deutsch English Español Suomi Français Magyar Italiano Nederlands norsk Polski Português svenska Türkçe

 

Het Weer

Punta Marina (Italië)

13:55, 18 juli 2016 (GMT)

NWNNE
WE
SWSSE
Home            
Punta Marina Cervia Forli Rimini Ferrara Bologna / Borgo Panigale Frontone Dova Area Control Center Firenze / Peretola Arezzo Venezia / Tessera Porretta Pass Falconara Monte Cimone Treviso / S. Angelo Treviso / Istrana Vicenza Perugia Verona / Villafranca Portoroz / Secovlje Portoroz Volterra Parma

Om een weerknop op uw website of weblog te plaatsen, copieer onderstaande code en plak die in uw pagina. In het eerste vakje staat HTML-code, in het tweede vakje UBB-code.


Add to Google

Details

Wind speed:2 bf, 6 kn, 3.1 m/s, 6.9 miles/h, 11.1 km/h
Wind direction:SE, 140°
Visibility:Greater than 10000 m, 10 km, 32800 ft, 6.2 miles
Clouds:CAVOC
Temperature:30°C, 86°F
Gefühlte Temperatur:33°C, 92°F
Dew-point:22°C, 72°F
Atmospheric pressure:1018 hPa, 763.6 mmHg, 30.06 inHg, 1.005 atm
Relative humidity:62.3 %
METAR:LIVM 181355Z 14006KT CAVOK 30/22 Q1018 RMK SKC QUK 1 QUL 0 VIS MAR 20 KM VIS MIN 9999

Snelkoppelingen

Actuele weersinformatie van de hele wereld. Voeg locaties toe met het plus (+) symbool. Deze snelkoppelingen kunnen worden toegevoegd aan Google.

Lid van de Technetium groep

website free tracking
StatCounter NetStat W3C Validator

06-07-2022 04:08:05
astro.technetium.be money.technetium.be phote.technetium.be tafeltennistafel.technetium.be www.ligfiets.net